Time;durP1;ratioP1;P1;durP2;ratioP2;P2;SDS_P1;SDS_P2;PMS_P1;PMS_P2;Temp;Humidity;BMP_temperature;BMP_pressure;BME280_temperature;BME280_humidity;BME280_pressure;Samples;Min_cycle;Max_cycle;Signal;HPM_P1;HPM_P2
2021/04/03 00:00:37;;;;;;;17.32;10.23;;;;;;;7.68;79.68;100129.77;2820317;84;21183;-62
2021/04/03 00:04:42;;;;;;;15.93;10.63;;;;;;;7.65;80.63;100128.64;2820144;84;21153;-62
2021/04/03 00:08:45;;;;;;;16.37;9.20;;;;;;;7.68;81.35;100122.66;2819722;83;21197;-63
2021/04/03 00:12:49;;;;;;;21.60;12.20;;;;;;;7.78;81.50;100122.83;2867774;83;21165;-63
2021/04/03 00:16:52;;;;;;;14.70;9.48;;;;;;;7.88;81.19;100123.00;2867760;83;21168;-63
2021/04/03 00:20:59;;;;;;;15.00;9.35;;;;;;;7.99;81.20;100126.19;2868025;83;21184;-62
2021/04/03 00:25:25;;;;;;;15.98;9.20;;;;;;;8.15;81.39;100124.56;2867727;83;21160;-63
2021/04/03 00:29:28;;;;;;;26.23;10.08;;;;;;;8.21;80.72;100121.47;2819847;84;21166;-63
2021/04/03 00:33:34;;;;;;;21.35;11.18;;;;;;;8.18;79.97;100119.52;2819486;84;21145;-63
2021/04/03 00:37:37;;;;;;;26.37;8.78;;;;;;;8.12;80.05;100117.70;2819667;84;21172;-63
2021/04/03 00:41:42;;;;;;;18.62;12.98;;;;;;;8.04;80.03;100112.11;2819601;84;21642;-63
2021/04/03 00:45:48;;;;;;;;;;;;;;;7.95;80.38;100118.10;2822366;84;21136;-63
2021/04/03 00:49:53;;;;;;;18.20;9.28;;;;;;;7.74;80.36;100113.89;2819655;84;20473;-63
2021/04/03 00:54:02;;;;;;;11.35;6.92;;;;;;;7.68;81.06;100116.53;2819660;84;21132;-63
2021/04/03 00:58:26;;;;;;;18.40;7.83;;;;;;;7.63;80.42;100109.38;2819342;84;21145;-63
2021/04/03 01:02:30;;;;;;;17.55;9.43;;;;;;;7.50;80.45;100118.22;2807994;84;21138;-63
2021/04/03 01:06:34;;;;;;;12.18;7.17;;;;;;;7.37;80.95;100116.07;2807874;84;21130;-63
2021/04/03 01:10:51;;;;;;;14.10;7.37;;;;;;;7.27;80.90;100110.59;2807826;84;21166;-63
2021/04/03 01:15:34;;;;;;;12.18;6.92;;;;;;;7.14;81.27;100114.09;2807638;84;21182;-63
2021/04/03 01:20:01;;;;;;;18.05;10.68;;;;;;;7.04;81.71;100106.91;2781914;84;30082;-63
2021/04/03 01:24:58;;;;;;;8.10;6.08;;;;;;;7.11;82.38;100106.87;2783089;85;21212;-62
2021/04/03 01:29:23;;;;;;;10.70;5.85;;;;;;;7.07;81.60;100105.36;2805545;84;21357;-63
2021/04/03 01:33:31;;;;;;;12.78;6.20;;;;;;;6.92;82.08;100094.93;2751594;85;21165;-63
2021/04/03 01:37:45;;;;;;;11.78;6.95;;;;;;;6.83;82.56;100094.23;2725315;87;21206;-63
2021/04/03 01:41:53;;;;;;;9.33;4.97;;;;;;;6.83;83.04;100093.77;2710329;87;21189;-63
2021/04/03 01:45:59;;;;;;;8.90;5.17;;;;;;;6.84;83.23;100098.10;2711830;87;21192;-63
2021/04/03 01:50:05;;;;;;;7.55;5.00;;;;;;;6.77;83.32;100100.78;2711794;87;21185;-63
2021/04/03 01:54:11;;;;;;;11.03;6.40;;;;;;;6.69;83.44;100089.44;2759006;86;21185;-63
2021/04/03 01:58:18;;;;;;;9.38;6.42;;;;;;;6.67;83.76;100095.28;2766541;85;21188;-62
2021/04/03 02:02:23;;;;;;;12.63;5.70;;;;;;;6.68;83.99;100091.72;2776739;85;21199;-63
2021/04/03 02:06:29;;;;;;;8.10;4.65;;;;;;;6.70;84.08;100092.45;2778492;85;21194;-63
2021/04/03 02:10:34;;;;;;;10.75;5.92;;;;;;;6.66;84.00;100089.62;2730949;87;21208;-63
2021/04/03 02:14:41;;;;;;;11.75;7.08;;;;;;;6.60;84.38;100087.91;2801283;85;21184;-63
2021/04/03 02:18:46;;;;;;;11.03;7.33;;;;;;;6.60;84.66;100087.91;2803352;84;21558;-62
2021/04/03 02:22:51;;;;;;;7.87;4.73;;;;;;;6.60;84.83;100094.52;2804477;84;21189;-63
2021/04/03 02:27:17;;;;;;;11.57;8.00;;;;;;;6.55;84.57;100094.81;2804447;84;22171;-62
2021/04/03 02:31:20;;;;;;;11.20;6.10;;;;;;;6.52;84.35;100090.58;2729263;86;21188;-62
2021/04/03 02:35:26;;;;;;;8.88;7.28;;;;;;;6.48;84.79;100091.74;2728483;86;21233;-63
2021/04/03 02:39:30;;;;;;;7.37;5.40;;;;;;;6.48;84.75;100086.91;2728251;87;21184;-63
2021/04/03 02:43:56;;;;;;;12.50;7.47;;;;;;;6.41;84.90;100091.30;2728718;86;21192;-63
2021/04/03 02:48:04;;;;;;;10.78;7.55;;;;;;;6.36;85.08;100092.56;2729085;86;21184;-62
2021/04/03 02:52:09;;;;;;;13.45;8.50;;;;;;;6.33;85.54;100089.67;2746408;86;22225;-62
2021/04/03 02:56:14;;;;;;;11.78;6.03;;;;;;;6.35;85.84;100096.16;2759694;86;21165;-62
2021/04/03 03:00:20;;;;;;;14.65;7.62;;;;;;;6.36;86.01;100096.06;2759420;85;21146;-63
2021/04/03 03:04:24;;;;;;;8.15;5.78;;;;;;;6.35;86.08;100093.05;2759576;86;21177;-63
2021/04/03 03:08:29;;;;;;;9.05;6.17;;;;;;;6.37;86.26;100095.11;2759608;86;21155;-63
2021/04/03 03:12:33;;;;;;;10.03;6.30;;;;;;;6.40;86.23;100090.94;2759343;86;21202;-62
2021/04/03 03:16:37;;;;;;;9.58;6.90;;;;;;;6.43;86.57;100090.73;2759613;86;21605;-63
2021/04/03 03:20:43;;;;;;;10.08;6.65;;;;;;;6.47;86.43;100087.41;2759271;85;21202;-63
2021/04/03 03:24:46;;;;;;;9.83;8.13;;;;;;;6.48;86.41;100086.91;2759497;85;21621;-62
2021/04/03 03:28:51;;;;;;;11.55;8.20;;;;;;;6.47;86.65;100090.52;2751619;85;21179;-62
2021/04/03 03:32:56;;;;;;;13.40;7.67;;;;;;;6.46;86.89;100096.75;2725237;86;21606;-62
2021/04/03 03:37:00;;;;;;;12.88;7.40;;;;;;;6.48;87.04;100101.45;2684690;88;21172;-62
2021/04/03 03:41:05;;;;;;;13.75;8.33;;;;;;;6.54;86.92;100107.66;2642133;90;21198;-62
2021/04/03 03:45:32;;;;;;;11.00;8.58;;;;;;;6.51;86.63;100110.03;2681317;87;21237;-63
2021/04/03 03:49:36;;;;;;;11.53;6.95;;;;;;;6.52;86.61;100111.72;2826648;84;21148;-63
2021/04/03 03:53:42;;;;;;;10.45;6.40;;;;;;;6.51;86.42;100117.12;2863955;83;21177;-62
2021/04/03 03:57:48;;;;;;;12.58;7.25;;;;;;;6.45;86.42;100116.20;2864286;83;21201;-63
2021/04/03 04:01:55;;;;;;;7.05;5.97;;;;;;;6.37;86.72;100125.95;2864149;83;21161;-62
2021/04/03 04:06:01;;;;;;;;;;;;;;;6.33;87.03;100128.44;2865798;83;21103;-62
2021/04/03 04:10:08;;;;;;;;;;;;;;;6.27;87.39;100133.65;2849001;83;20457;-63
2021/04/03 04:14:13;;;;;;;13.32;7.60;;;;;;;6.24;87.66;100132.53;2862883;83;20179;-63
2021/04/03 04:18:21;;;;;;;12.85;6.95;;;;;;;6.24;87.45;100129.89;2777802;85;21206;-62
2021/04/03 04:22:24;;;;;;;10.23;7.00;;;;;;;6.19;87.65;100141.25;2823314;83;21186;-63
2021/04/03 04:26:52;;;;;;;17.42;8.50;;;;;;;6.16;87.72;100140.96;2826714;84;21173;-63
2021/04/03 04:30:55;;;;;;;12.82;7.47;;;;;;;6.20;87.79;100150.86;2770785;85;21177;-63
2021/04/03 04:34:58;;;;;;;10.65;6.17;;;;;;;6.20;88.05;100149.55;2769342;86;21179;-63
2021/04/03 04:39:03;;;;;;;14.78;9.03;;;;;;;6.23;88.22;100154.62;2781161;85;21206;-63
2021/04/03 04:43:08;;;;;;;13.78;8.88;;;;;;;6.26;88.32;100157.91;2737339;87;21662;-63
2021/04/03 04:47:14;;;;;;;8.28;6.80;;;;;;;6.34;88.22;100161.83;2783831;85;21205;-62
2021/04/03 04:51:38;;;;;;;11.30;7.47;;;;;;;6.38;88.01;100160.67;2776223;85;21191;-62
2021/04/03 04:55:42;;;;;;;11.68;7.97;;;;;;;6.42;87.77;100172.27;2825307;84;21183;-63
2021/04/03 04:59:47;;;;;;;12.03;7.72;;;;;;;6.45;87.47;100171.23;2825502;84;21149;-63
2021/04/03 05:03:53;;;;;;;10.75;6.55;;;;;;;6.45;87.16;100171.23;2825648;84;21196;-63
2021/04/03 05:07:56;;;;;;;15.48;8.63;;;;;;;6.52;86.71;100171.67;2825675;84;21164;-63
2021/04/03 05:12:23;;;;;;;13.98;8.58;;;;;;;6.56;86.39;100175.30;2825827;84;21575;-63
2021/04/03 05:16:26;;;;;;;17.35;7.55;;;;;;;6.64;86.43;100173.47;2781286;85;21175;-64
2021/04/03 05:20:32;;;;;;;11.97;6.58;;;;;;;6.70;85.45;100182.33;2781315;85;21626;-63
2021/04/03 05:24:38;;;;;;;11.75;8.78;;;;;;;6.67;84.26;100191.77;2781647;85;21148;-63
2021/04/03 05:28:44;;;;;;;10.53;6.78;;;;;;;6.81;84.65;100192.64;2781549;85;21136;-63
2021/04/03 05:32:48;;;;;;;7.45;5.92;;;;;;;6.89;83.74;100196.95;2734264;85;21159;-63
2021/04/03 05:36:52;;;;;;;9.73;7.20;;;;;;;6.95;83.18;100196.52;2733454;87;21124;-63
2021/04/03 05:40:55;;;;;;;10.55;7.72;;;;;;;7.05;83.01;100193.23;2733326;87;21160;-63
2021/04/03 05:45:06;;;;;;;13.38;8.83;;;;;;;7.33;82.24;100214.66;2733266;87;21176;-63
2021/04/03 05:49:11;;;;;;;10.68;6.75;;;;;;;7.60;80.35;100215.03;2732697;87;21175;-64
2021/04/03 05:53:15;;;;;;;13.38;8.38;;;;;;;7.74;79.82;100215.83;2710390;87;21185;-63
2021/04/03 05:57:18;;;;;;;14.23;6.72;;;;;;;7.91;77.93;100227.88;2733623;87;21160;-63
2021/04/03 06:01:24;;;;;;;11.48;7.05;;;;;;;8.25;77.42;100230.72;2747016;85;21587;-63
2021/04/03 06:05:27;;;;;;;10.95;7.92;;;;;;;8.47;75.41;100231.81;2756140;85;21188;-63
2021/04/03 06:09:30;;;;;;;11.78;7.33;;;;;;;8.55;75.12;100237.41;2756225;86;21580;-63
2021/04/03 06:13:33;;;;;;;11.70;7.08;;;;;;;8.98;74.54;100239.48;2751996;85;21265;-63
2021/04/03 06:17:37;;;;;;;7.75;6.33;;;;;;;8.78;71.65;100237.50;2750831;86;21168;-64
2021/04/03 06:21:57;;;;;;;17.80;7.75;;;;;;;8.55;72.85;100241.39;2766133;86;21727;-63
2021/04/03 06:26:01;;;;;;;15.28;7.62;;;;;;;8.19;73.32;100247.08;2765917;86;21179;-63
2021/04/03 06:30:14;;;;;;;13.50;7.28;;;;;;;7.83;75.06;100245.15;2765667;84;21206;-63
2021/04/03 06:34:34;;;;;;;15.00;6.08;;;;;;;7.52;74.93;100249.11;2773188;85;21674;-64
2021/04/03 06:38:39;;;;;;;11.15;7.30;;;;;;;7.42;76.13;100249.77;2773503;85;21634;-65
2021/04/03 06:42:55;;;;;;;11.78;7.75;;;;;;;7.48;76.14;100258.23;2773284;85;21189;-66
2021/04/03 06:47:02;;;;;;;17.00;9.20;;;;;;;7.47;75.87;100262.69;2773927;85;21210;-64
2021/04/03 06:51:08;;;;;;;11.55;6.45;;;;;;;7.42;76.04;100270.08;2774075;85;21189;-65
2021/04/03 06:55:15;;;;;;;12.30;6.87;;;;;;;7.39;76.07;100280.88;2783026;85;21168;-65
2021/04/03 06:59:21;;;;;;;9.08;7.15;;;;;;;7.38;76.23;100287.13;2774703;85;21166;-65
2021/04/03 07:03:25;;;;;;;9.33;7.17;;;;;;;7.70;76.67;100287.55;2761182;85;21177;-64
2021/04/03 07:07:30;;;;;;;12.23;7.00;;;;;;;8.13;73.30;100292.94;2747650;85;21205;-65
2021/04/03 07:11:33;;;;;;;15.80;7.28;;;;;;;8.43;73.05;100300.94;2767755;85;21520;-65
2021/04/03 07:15:36;;;;;;;10.75;6.45;;;;;;;8.46;70.95;100313.63;2765574;85;21161;-64
2021/04/03 07:19:41;;;;;;;12.37;7.83;;;;;;;8.54;70.85;100317.91;2731957;85;21174;-65
2021/04/03 07:23:45;;;;;;;10.43;6.28;;;;;;;8.91;73.39;100320.98;2759069;85;21642;-64
2021/04/03 07:27:49;;;;;;;14.70;9.43;;;;;;;9.08;71.39;100327.20;2753855;85;21678;-64
2021/04/03 07:31:52;;;;;;;10.75;6.90;;;;;;;8.71;69.62;100333.44;2745457;85;21647;-64
2021/04/03 07:36:02;;;;;;;15.03;6.60;;;;;;;8.37;70.42;100341.16;2764811;85;21628;-65
2021/04/03 07:40:07;;;;;;;9.25;6.60;;;;;;;8.39;71.59;100356.47;2778612;85;21157;-65
2021/04/03 07:44:13;;;;;;;9.33;6.33;;;;;;;8.53;70.52;100362.63;2775181;85;21140;-65
2021/04/03 07:48:41;;;;;;;10.10;6.87;;;;;;;8.92;71.81;100371.74;2739026;85;21663;-64
2021/04/03 07:52:55;;;;;;;9.25;7.22;;;;;;;9.37;71.86;100369.77;2750559;85;21639;-64
2021/04/03 07:57:02;;;;;;;10.75;7.62;;;;;;;9.37;68.01;100375.07;2779373;85;21149;-64
2021/04/03 08:01:06;;;;;;;16.90;11.30;;;;;;;9.12;70.15;100373.77;2775299;85;21169;-64
2021/04/03 08:05:13;;;;;;;15.48;11.93;;;;;;;8.92;69.94;100387.20;2731314;85;21420;-67
2021/04/03 08:09:17;;;;;;;13.45;9.90;;;;;;;8.76;70.98;100393.25;2734897;85;21175;-65
2021/04/03 08:13:24;;;;;;;20.45;11.70;;;;;;;8.71;71.78;100409.48;2749968;85;22096;-61
2021/04/03 08:17:26;;;;;;;17.10;11.55;;;;;;;8.68;71.54;100410.58;2769701;85;21209;-61
2021/04/03 08:21:47;;;;;;;14.47;9.50;;;;;;;8.67;70.28;100406.23;2772841;85;21669;-61
2021/04/03 08:25:56;;;;;;;16.15;10.95;;;;;;;8.80;69.64;100407.98;2776715;85;21190;-61
2021/04/03 08:29:59;;;;;;;11.40;7.25;;;;;;;9.27;70.33;100413.41;2777813;84;21181;-61
2021/04/03 08:34:05;;;;;;;12.90;10.08;;;;;;;9.55;68.55;100421.48;2769933;85;21457;-60
2021/04/03 08:38:15;;;;;;;15.13;9.13;;;;;;;9.84;66.66;100421.09;2768960;85;21160;-60
2021/04/03 08:42:20;;;;;;;14.70;10.35;;;;;;;10.21;66.48;100424.48;2768702;85;21236;-60
2021/04/03 08:46:26;;;;;;;14.23;9.15;;;;;;;10.62;66.73;100427.08;2772026;85;21141;-60
2021/04/03 08:50:29;;;;;;;10.13;7.80;;;;;;;10.65;65.59;100433.47;2772078;85;21627;-61
2021/04/03 08:54:40;;;;;;;9.75;8.68;;;;;;;10.69;63.92;100429.59;2745751;85;21153;-60
2021/04/03 08:58:43;;;;;;;11.10;7.55;;;;;;;10.50;63.84;100434.19;2771778;85;21626;-60
2021/04/03 09:02:47;;;;;;;9.45;6.72;;;;;;;10.25;63.13;100433.44;2777036;85;22281;-60
2021/04/03 09:06:57;;;;;;;7.55;6.53;;;;;;;10.16;63.82;100440.81;2779240;85;21529;-60
2021/04/03 09:11:04;;;;;;;11.22;6.85;;;;;;;10.05;63.75;100443.45;2776917;85;21129;-60
2021/04/03 09:15:09;;;;;;;8.30;5.55;;;;;;;10.07;63.41;100436.20;2776595;84;21169;-60
2021/04/03 09:19:40;;;;;;;7.87;6.05;;;;;;;10.14;62.73;100429.46;2772564;85;21190;-60
2021/04/03 09:23:48;;;;;;;5.37;4.87;;;;;;;10.27;64.25;100438.65;2773547;84;21161;-60
2021/04/03 09:28:10;;;;;;;6.42;4.60;;;;;;;10.47;63.01;100429.12;2781828;84;21162;-60
2021/04/03 09:32:14;;;;;;;5.35;4.72;;;;;;;10.57;60.67;100433.22;2726243;85;21164;-62
2021/04/03 09:36:19;;;;;;;7.03;5.10;;;;;;;10.70;61.52;100428.62;2772423;84;21699;-61
2021/04/03 09:40:35;;;;;;;6.47;4.20;;;;;;;10.82;61.09;100428.61;2776200;84;21930;-61
2021/04/03 09:44:40;;;;;;;5.97;4.87;;;;;;;10.78;60.82;100439.12;2786561;84;21688;-64
2021/04/03 09:49:05;;;;;;;4.87;3.80;;;;;;;10.33;62.10;100420.88;2780754;85;21123;-63
2021/04/03 09:53:11;;;;;;;2.85;2.65;;;;;;;9.82;62.08;100450.05;2899913;81;21142;-61
2021/04/03 09:57:16;;;;;;;2.17;1.62;;;;;;;9.00;64.64;100456.45;2903982;81;21151;-61
2021/04/03 10:01:18;;;;;;;6.10;1.57;;;;;;;8.19;66.77;100464.36;2866856;81;21130;-62
2021/04/03 10:05:22;;;;;;;3.70;2.33;;;;;;;7.85;69.21;100455.11;2879671;81;21546;-61
2021/04/03 10:09:26;;;;;;;7.47;3.70;;;;;;;7.67;71.11;100465.65;2898929;80;21190;-62
2021/04/03 10:13:30;;;;;;;2.05;1.85;;;;;;;7.42;75.35;100471.22;2894800;80;21148;-62
2021/04/03 10:17:34;;;;;;;4.05;1.98;;;;;;;7.31;73.32;100470.61;2913981;80;21595;-62
2021/04/03 10:21:37;;;;;;;4.72;1.80;;;;;;;7.28;75.23;100464.20;2904636;80;21192;-63
2021/04/03 10:25:42;;;;;;;2.52;2.27;;;;;;;7.46;75.65;100458.16;2909542;80;21476;-64
2021/04/03 10:29:45;;;;;;;2.45;2.15;;;;;;;7.67;76.07;100445.80;2878988;80;21628;-64
2021/04/03 10:33:48;;;;;;;1.95;1.75;;;;;;;8.06;75.00;100445.36;2902194;81;21168;-63
2021/04/03 10:37:51;;;;;;;2.12;1.95;;;;;;;8.44;74.32;100445.78;2908522;81;21183;-64
2021/04/03 10:41:54;;;;;;;3.65;2.10;;;;;;;8.83;74.24;100448.40;2913532;81;21122;-63
2021/04/03 10:45:58;;;;;;;5.37;3.58;;;;;;;9.23;73.89;100448.61;2923180;80;21154;-61
2021/04/03 10:50:03;;;;;;;4.17;2.80;;;;;;;9.52;73.00;100453.58;2908233;80;21118;-62
2021/04/03 10:54:07;;;;;;;4.50;3.92;;;;;;;9.68;73.20;100456.42;2916943;80;21182;-62
2021/04/03 10:58:11;;;;;;;3.30;1.30;;;;;;;9.57;70.09;100458.05;2903702;81;21835;-62
2021/04/03 11:02:15;;;;;;;2.40;0.65;;;;;;;9.27;71.15;100515.14;2901791;80;21181;-62
2021/04/03 11:06:18;;;;;;;1.20;0.90;;;;;;;8.37;72.26;100514.77;2918005;80;21154;-60
2021/04/03 11:10:21;;;;;;;0.82;0.80;;;;;;;7.71;75.47;100519.60;2879121;80;21206;-58
2021/04/03 11:14:24;;;;;;;1.10;0.93;;;;;;;7.31;77.96;100505.01;2847784;83;21168;-58
2021/04/03 11:18:26;;;;;;;0.60;0.60;;;;;;;7.09;79.71;100495.80;2847043;83;21185;-59
2021/04/03 11:22:32;;;;;;;11.55;1.72;;;;;;;7.10;80.36;100492.70;2925954;80;21705;-60
2021/04/03 11:26:35;;;;;;;0.70;0.70;;;;;;;7.19;81.38;100495.23;2909782;80;21732;-60
2021/04/03 11:30:38;;;;;;;2.17;1.05;;;;;;;7.39;82.32;100499.22;2869635;82;21159;-59
2021/04/03 11:34:44;;;;;;;1.10;1.00;;;;;;;7.72;81.59;100492.66;2871375;80;21157;-60
2021/04/03 11:38:47;;;;;;;2.00;0.53;;;;;;;8.02;80.21;100484.08;2919625;80;21734;-60
2021/04/03 11:42:53;;;;;;;1.05;0.60;;;;;;;8.24;79.68;100487.41;2925199;80;21125;-60
2021/04/03 11:46:57;;;;;;;1.17;0.88;;;;;;;8.44;79.23;100482.89;2953186;80;21173;-60
2021/04/03 11:51:00;;;;;;;1.00;0.70;;;;;;;8.72;79.19;100474.84;2945479;80;21165;-59
2021/04/03 11:55:05;;;;;;;0.70;0.70;;;;;;;9.04;78.59;100469.03;2928442;80;21117;-60
2021/04/03 11:59:08;;;;;;;0.50;0.50;;;;;;;9.35;78.93;100472.57;2928782;80;21153;-60
2021/04/03 12:03:11;;;;;;;1.47;1.15;;;;;;;9.66;77.38;100474.28;2929471;80;21727;-61
2021/04/03 12:07:14;;;;;;;5.58;2.55;;;;;;;9.88;75.18;100466.84;2906799;80;21167;-61
2021/04/03 12:11:17;;;;;;;5.55;3.35;;;;;;;9.93;74.57;100480.65;2928620;80;21141;-63
2021/04/03 12:15:20;;;;;;;3.42;3.08;;;;;;;9.63;71.55;100483.31;2898270;81;21206;-62
2021/04/03 12:19:23;;;;;;;3.75;2.55;;;;;;;9.38;71.38;100459.92;2860968;83;21564;-64
2021/04/03 12:23:26;;;;;;;1.82;1.40;;;;;;;9.35;72.64;100463.28;2948030;80;21161;-62
2021/04/03 12:27:29;;;;;;;3.10;1.87;;;;;;;9.40;71.54;100457.14;2934277;80;21858;-62
2021/04/03 12:31:32;;;;;;;1.70;1.57;;;;;;;9.40;70.59;100462.45;2932222;80;21133;-62
2021/04/03 12:35:34;;;;;;;5.33;3.17;;;;;;;9.41;69.40;100449.08;2945155;80;21615;-61
2021/04/03 12:39:37;;;;;;;5.97;3.95;;;;;;;9.48;70.00;100458.77;2907943;80;21112;-62
2021/04/03 12:43:40;;;;;;;5.67;3.92;;;;;;;9.48;69.19;100444.63;2906871;81;21153;-59
2021/04/03 12:47:43;;;;;;;10.10;6.20;;;;;;;9.53;70.09;100443.32;2920381;80;21169;-61
2021/04/03 12:51:46;;;;;;;10.25;6.80;;;;;;;9.68;70.73;100440.48;2949064;80;21173;-60
2021/04/03 12:55:49;;;;;;;9.50;6.92;;;;;;;9.77;68.80;100439.77;2906947;81;21157;-63
2021/04/03 12:59:52;;;;;;;8.40;6.25;;;;;;;9.79;69.62;100432.52;2904455;81;21197;-60
2021/04/03 13:03:55;;;;;;;9.60;6.55;;;;;;;9.85;69.24;100440.05;2906603;81;21165;-61
2021/04/03 13:07:58;;;;;;;9.80;6.05;;;;;;;9.83;69.78;100439.32;2917888;80;21097;-61
2021/04/03 13:12:03;;;;;;;10.18;6.17;;;;;;;9.80;70.21;100442.19;2875592;81;21153;-60
2021/04/03 13:16:06;;;;;;;10.53;8.23;;;;;;;9.76;70.27;100443.88;2910396;80;21158;-61
2021/04/03 13:20:13;;;;;;;11.28;7.40;;;;;;;9.71;71.16;100446.38;2925024;80;21218;-60
2021/04/03 13:24:18;;;;;;;3.20;2.90;;;;;;;9.59;71.16;100455.30;2936068;80;21141;-60
2021/04/03 13:28:21;;;;;;;5.78;3.27;;;;;;;9.00;69.42;100460.44;2928394;80;21563;-60
2021/04/03 13:32:24;;;;;;;2.77;2.58;;;;;;;8.55;72.59;100470.27;2935509;80;21648;-60
2021/04/03 13:36:27;;;;;;;3.75;2.50;;;;;;;8.34;73.82;100483.19;2939671;80;21141;-60
2021/04/03 13:40:33;;;;;;;3.22;2.85;;;;;;;8.24;72.17;100492.71;2934312;80;21643;-59
2021/04/03 13:44:36;;;;;;;3.17;2.58;;;;;;;8.31;74.78;100489.16;2926369;80;21149;-59
2021/04/03 13:48:41;;;;;;;4.60;2.55;;;;;;;8.51;75.47;100490.47;2920928;80;21814;-59
2021/04/03 13:52:44;;;;;;;6.97;3.98;;;;;;;8.64;76.57;100495.27;2879346;81;21129;-60
2021/04/03 13:56:49;;;;;;;3.22;2.10;;;;;;;8.85;75.34;100500.03;2909998;81;21122;-60
2021/04/03 14:00:54;;;;;;;2.22;2.02;;;;;;;8.95;75.11;100493.59;2896849;81;21153;-64
2021/04/03 14:05:20;;;;;;;2.47;1.40;;;;;;;8.89;73.11;100492.22;2886836;81;21165;-61
2021/04/03 14:09:23;;;;;;;1.85;1.20;;;;;;;8.83;72.33;100483.34;2746418;85;21212;-61
2021/04/03 14:13:27;;;;;;;3.20;2.83;;;;;;;8.85;71.96;100489.42;2754227;85;21179;-61
2021/04/03 14:17:30;;;;;;;1.67;1.50;;;;;;;8.99;72.31;100487.09;2716441;86;21229;-61
2021/04/03 14:21:33;;;;;;;2.58;1.47;;;;;;;9.22;72.78;100507.97;2712345;86;21189;-62
2021/04/03 14:25:37;;;;;;;2.90;1.90;;;;;;;9.54;74.38;100489.33;2758033;85;21144;-62
2021/04/03 14:29:40;;;;;;;1.57;1.47;;;;;;;9.69;68.45;100501.44;2734900;85;21242;-62
2021/04/03 14:33:43;;;;;;;2.17;2.00;;;;;;;9.64;70.17;100500.95;2733985;87;21151;-64
2021/04/03 14:37:46;;;;;;;3.77;1.55;;;;;;;9.47;69.08;100504.87;2733117;86;21226;-64
2021/04/03 14:41:49;;;;;;;2.60;0.90;;;;;;;9.29;70.89;100518.53;2732633;87;21733;-64
2021/04/03 14:45:52;;;;;;;9.05;2.87;;;;;;;8.99;70.93;100532.20;2731233;87;21187;-65
2021/04/03 14:49:55;;;;;;;1.57;1.15;;;;;;;8.62;72.73;100543.59;2732859;87;21227;-68
2021/04/03 14:53:59;;;;;;;4.75;3.33;;;;;;;8.36;74.31;100537.43;2733543;86;21180;-66
2021/04/03 14:58:02;;;;;;;7.30;4.37;;;;;;;8.09;74.38;100539.20;2733308;87;21113;-63
2021/04/03 15:02:06;;;;;;;7.50;4.67;;;;;;;7.82;75.10;100524.18;2730955;87;21658;-64
2021/04/03 15:06:09;;;;;;;4.97;3.20;;;;;;;7.66;75.97;100516.41;2735932;86;21687;-63
2021/04/03 15:10:13;;;;;;;3.60;2.40;;;;;;;7.68;77.20;100517.66;2765377;84;21637;-64
2021/04/03 15:14:18;;;;;;;2.35;1.77;;;;;;;7.65;75.41;100530.61;2763369;86;21146;-67
2021/04/03 15:18:23;;;;;;;2.37;2.17;;;;;;;7.62;75.66;100519.36;2770649;85;21205;-67
2021/04/03 15:22:50;;;;;;;2.55;2.25;;;;;;;7.63;74.53;100523.24;2723976;87;21202;-66
2021/04/03 15:26:54;;;;;;;3.30;1.90;;;;;;;7.60;74.40;100527.88;2743962;86;21182;-66
2021/04/03 15:30:57;;;;;;;6.28;3.08;;;;;;;7.58;73.95;100527.51;2704260;86;21223;-68
2021/04/03 15:35:01;;;;;;;2.55;2.35;;;;;;;7.55;74.50;100531.69;2761493;84;21169;-66
2021/04/03 15:39:05;;;;;;;4.83;3.72;;;;;;;7.60;74.82;100534.04;2784538;84;21144;-66
2021/04/03 15:43:08;;;;;;;1.82;1.57;;;;;;;7.60;75.38;100539.80;2779468;84;21150;-67
2021/04/03 15:47:11;;;;;;;1.55;1.37;;;;;;;7.52;77.13;100527.05;2775146;84;21225;-67
2021/04/03 15:51:14;;;;;;;3.05;1.82;;;;;;;7.49;77.91;100533.42;2765575;84;22272;-68
2021/04/03 15:55:17;;;;;;;2.72;1.90;;;;;;;7.53;78.74;100532.72;2773084;85;21181;-67
2021/04/03 15:59:21;;;;;;;4.30;1.70;;;;;;;7.55;78.26;100532.14;2731362;85;21189;-67
2021/04/03 16:03:23;;;;;;;2.62;1.32;;;;;;;7.54;77.29;100544.55;2771913;84;21172;-65
2021/04/03 16:07:26;;;;;;;3.75;1.85;;;;;;;7.51;77.12;100551.38;2791522;84;21672;-69
2021/04/03 16:11:34;;;;;;;3.20;2.35;;;;;;;7.57;76.80;100576.11;2804688;84;21196;-65
2021/04/03 16:15:38;;;;;;;3.87;3.42;;;;;;;7.41;77.31;100579.36;2792653;84;21156;-69
2021/04/03 16:19:40;;;;;;;4.33;3.15;;;;;;;7.21;78.15;100583.30;2762731;84;21212;-66
2021/04/03 16:23:43;;;;;;;8.20;3.90;;;;;;;6.99;80.07;100594.73;2750460;85;22164;-63
2021/04/03 16:27:46;;;;;;;7.20;4.80;;;;;;;6.82;80.69;100592.27;2770619;85;21175;-63
2021/04/03 16:31:50;;;;;;;6.53;3.40;;;;;;;6.72;81.20;100595.95;2754012;85;21701;-63
2021/04/03 16:35:54;;;;;;;5.95;4.25;;;;;;;6.68;81.28;100597.95;2757941;85;21775;-63
2021/04/03 16:39:57;;;;;;;6.15;4.22;;;;;;;6.73;81.65;100600.78;2752828;85;21220;-62
2021/04/03 16:44:01;;;;;;;3.12;2.67;;;;;;;6.77;81.90;100613.70;2737896;85;21217;-63
2021/04/03 16:48:05;;;;;;;5.55;3.65;;;;;;;6.84;82.36;100610.22;2764313;85;21211;-62
2021/04/03 16:52:09;;;;;;;4.47;2.67;;;;;;;6.89;82.70;100622.70;2771881;84;21137;-62
2021/04/03 16:56:13;;;;;;;1.87;1.70;;;;;;;6.77;82.25;100627.41;2751350;85;21192;-61
2021/04/03 17:00:19;;;;;;;2.90;1.90;;;;;;;6.62;82.19;100630.51;2745627;85;21377;-61
2021/04/03 17:04:23;;;;;;;3.60;2.33;;;;;;;6.53;82.80;100637.19;2757993;86;21647;-62
2021/04/03 17:08:28;;;;;;;3.00;2.65;;;;;;;6.42;83.61;100633.37;2754796;84;21175;-62
2021/04/03 17:12:31;;;;;;;3.55;2.92;;;;;;;6.25;83.91;100638.80;2769997;84;21181;-63
2021/04/03 17:16:34;;;;;;;3.85;1.72;;;;;;;6.11;83.96;100652.35;2763031;84;21189;-64
2021/04/03 17:20:43;;;;;;;3.15;1.72;;;;;;;5.96;83.94;100651.38;2764567;84;21148;-63
2021/04/03 17:24:45;;;;;;;;;;;;;;;5.83;84.30;100649.91;2676433;87;21234;-64
2021/04/03 17:28:48;;;;;;;4.85;2.35;;;;;;;5.79;85.12;100640.92;2729669;86;20178;-64
2021/04/03 17:32:52;;;;;;;5.37;2.75;;;;;;;5.78;84.96;100649.33;2734219;86;21198;-66
2021/04/03 17:36:55;;;;;;;7.75;3.47;;;;;;;5.77;85.12;100652.03;2758099;86;21136;-64
2021/04/03 17:40:58;;;;;;;11.70;6.47;;;;;;;5.67;84.65;100656.98;2738280;86;21171;-63
2021/04/03 17:45:03;;;;;;;8.13;5.03;;;;;;;5.50;85.00;100662.74;2688509;87;21189;-65
2021/04/03 17:49:07;;;;;;;3.33;2.33;;;;;;;5.40;85.03;100666.80;2725169;87;21160;-63
2021/04/03 17:53:13;;;;;;;3.20;1.75;;;;;;;5.34;85.59;100662.70;2717838;87;21136;-63
2021/04/03 17:57:17;;;;;;;2.87;1.80;;;;;;;5.31;85.69;100676.55;2660167;87;21180;-64
2021/04/03 18:01:19;;;;;;;3.30;2.35;;;;;;;5.31;86.25;100685.78;2699763;87;21651;-64
2021/04/03 18:05:22;;;;;;;3.08;2.33;;;;;;;5.36;86.64;100694.28;2720215;87;21610;-63
2021/04/03 18:09:25;;;;;;;4.28;3.15;;;;;;;5.41;87.40;100702.80;2703307;87;21204;-61
2021/04/03 18:13:28;;;;;;;3.72;2.80;;;;;;;5.53;87.90;100707.88;2704265;87;21184;-62
2021/04/03 18:17:34;;;;;;;5.78;3.45;;;;;;;5.66;88.23;100714.66;2702945;87;21604;-62
2021/04/03 18:21:41;;;;;;;5.42;3.30;;;;;;;5.71;87.76;100725.36;2754008;84;21154;-63
2021/04/03 18:25:44;;;;;;;4.15;3.05;;;;;;;5.75;87.49;100732.66;2769944;84;21624;-61
2021/04/03 18:29:49;;;;;;;6.28;3.83;;;;;;;5.76;87.13;100737.45;2782010;83;21183;-63
2021/04/03 18:33:52;;;;;;;6.47;3.95;;;;;;;5.71;87.10;100745.64;2783006;84;21627;-63
2021/04/03 18:37:56;;;;;;;4.83;3.67;;;;;;;5.67;87.01;100748.91;2791449;84;21150;-63
2021/04/03 18:42:03;;;;;;;7.22;3.20;;;;;;;5.61;86.99;100749.25;2786138;84;21198;-63
2021/04/03 18:46:06;;;;;;;7.67;3.10;;;;;;;5.52;86.76;100757.19;2786734;84;21167;-62
2021/04/03 18:50:14;;;;;;;5.03;3.65;;;;;;;5.42;86.61;100761.23;2780351;84;21162;-63
2021/04/03 18:54:17;;;;;;;7.87;4.05;;;;;;;5.34;86.59;100761.63;2764244;84;21996;-62
2021/04/03 18:58:20;;;;;;;5.28;3.67;;;;;;;5.24;86.79;100763.89;2758300;86;21199;-63
2021/04/03 19:02:25;;;;;;;6.37;3.17;;;;;;;5.21;86.93;100766.70;2786140;84;21179;-63
2021/04/03 19:06:28;;;;;;;4.28;3.35;;;;;;;5.14;86.64;100766.64;2798184;84;21524;-62
2021/04/03 19:10:33;;;;;;;7.80;2.92;;;;;;;5.05;86.55;100769.73;2739577;86;22258;-62